Time;durP1;ratioP1;P1;durP2;ratioP2;P2;SDS_P1;SDS_P2;PMS_P1;PMS_P2;Temp;Humidity;BMP_temperature;BMP_pressure;BME280_temperature;BME280_humidity;BME280_pressure;Samples;Min_cycle;Max_cycle;Signal;HPM_P1;HPM_P2
2022/08/30 00:03:20;;;;;;;10.45;7.15;;;;;;;14.53;78.67;98950.56;1639940;87;25707;-57
2022/08/30 00:05:47;;;;;;;9.98;6.60;;;;;;;14.48;79.14;98960.42;1639804;87;25767;-57
2022/08/30 00:08:14;;;;;;;13.58;6.12;;;;;;;14.55;79.31;98966.22;1640116;87;25623;-57
2022/08/30 00:10:42;;;;;;;11.48;5.70;;;;;;;14.55;79.31;98966.22;1640283;87;25810;-57
2022/08/30 00:13:11;;;;;;;9.63;5.55;;;;;;;14.59;79.32;98968.53;1640308;86;25501;-57
2022/08/30 00:15:40;;;;;;;9.25;5.20;;;;;;;14.64;79.26;98979.95;1639906;86;26912;-57
2022/08/30 00:18:07;;;;;;;7.35;5.25;;;;;;;14.60;79.14;98977.63;1640060;86;25498;-57
2022/08/30 00:20:36;;;;;;;7.47;5.47;;;;;;;14.51;79.11;98969.41;1640146;86;25649;-57
2022/08/30 00:23:04;;;;;;;10.55;5.75;;;;;;;14.43;79.41;98976.58;1640223;87;26575;-57
2022/08/30 00:25:31;;;;;;;12.80;6.05;;;;;;;14.35;79.48;98963.63;1640233;87;25513;-57
2022/08/30 00:27:57;;;;;;;11.30;5.85;;;;;;;14.42;79.58;98977.70;1639882;87;29569;-57
2022/08/30 00:30:24;;;;;;;10.63;6.37;;;;;;;14.35;79.27;98965.83;1640053;87;25597;-57
2022/08/30 00:32:50;;;;;;;9.98;6.15;;;;;;;14.33;79.29;98976.38;1639973;86;25663;-57
2022/08/30 00:35:19;;;;;;;11.30;5.83;;;;;;;14.27;79.54;98972.18;1640202;87;25848;-57
2022/08/30 00:37:47;;;;;;;10.58;7.10;;;;;;;14.27;79.95;98974.94;1640183;87;25645;-57
2022/08/30 00:40:15;;;;;;;11.50;6.97;;;;;;;14.33;80.03;98976.38;1640121;86;28428;-58
2022/08/30 00:42:43;;;;;;;9.60;6.85;;;;;;;14.35;79.88;98979.61;1640032;87;25595;-57
2022/08/30 00:45:24;;;;;;;12.45;6.95;;;;;;;14.36;79.75;98970.78;1640115;86;25666;-57
2022/08/30 00:47:51;;;;;;;;;;;;;;;14.36;79.75;98970.78;1642359;86;25962;-57
2022/08/30 00:50:22;;;;;;;11.20;5.87;;;;;;;14.30;80.09;98964.06;1640291;86;25486;-57
2022/08/30 00:52:52;;;;;;;13.83;6.35;;;;;;;14.30;80.08;98964.06;1640332;86;28699;-57
2022/08/30 00:55:20;;;;;;;11.90;5.93;;;;;;;14.33;79.61;98964.55;1640410;86;25747;-57
2022/08/30 00:57:50;;;;;;;8.05;5.75;;;;;;;14.16;79.81;98969.80;1640329;86;25616;-57
2022/08/30 01:00:17;;;;;;;10.38;6.22;;;;;;;14.16;79.81;98969.80;1640605;86;25956;-57
2022/08/30 01:02:44;;;;;;;11.85;5.83;;;;;;;14.01;80.31;98975.84;1640500;86;25597;-57
2022/08/30 01:05:11;;;;;;;12.43;6.10;;;;;;;13.85;81.20;98983.28;1640269;87;28255;-57
2022/08/30 01:07:39;;;;;;;12.18;6.12;;;;;;;13.73;81.29;98981.17;1640251;87;25500;-57
2022/08/30 01:10:08;;;;;;;11.12;5.53;;;;;;;13.75;81.47;98973.41;1656464;86;25452;-57
2022/08/30 01:12:37;;;;;;;10.28;5.70;;;;;;;13.91;81.16;98977.02;1656787;86;25772;-57
2022/08/30 01:15:05;;;;;;;9.38;5.50;;;;;;;13.93;80.58;98976.92;1656570;86;25619;-57
2022/08/30 01:17:31;;;;;;;9.13;5.37;;;;;;;13.88;80.60;98972.17;1639915;87;27658;-57
2022/08/30 01:20:05;;;;;;;10.08;6.42;;;;;;;13.80;80.50;98976.00;1639785;86;25751;-57
2022/08/30 01:22:52;;;;;;;10.43;6.80;;;;;;;13.70;80.99;98974.16;1639848;87;25758;-57
2022/08/30 01:25:27;;;;;;;10.63;6.72;;;;;;;13.59;81.32;98961.30;1639987;86;25710;-57
2022/08/30 01:28:00;;;;;;;9.48;5.35;;;;;;;13.62;81.48;98964.19;1640118;87;25698;-57
2022/08/30 01:30:29;;;;;;;49.77;25.68;;;;;;;13.68;81.38;98968.39;1621824;87;27472;-57
2022/08/30 01:33:02;;;;;;;16.55;8.88;;;;;;;13.72;81.39;98966.36;1639953;87;25743;-57
2022/08/30 01:35:40;;;;;;;20.52;11.20;;;;;;;13.77;81.47;98962.06;1640358;87;25597;-57
2022/08/30 01:38:07;;;;;;;13.83;8.78;;;;;;;13.65;81.15;98968.25;1639212;87;27790;-57
2022/08/30 01:40:33;;;;;;;17.57;9.05;;;;;;;13.59;81.54;98967.62;1640240;87;25444;-58
2022/08/30 01:42:59;;;;;;;13.43;8.30;;;;;;;13.59;81.54;98967.62;1640461;86;27559;-57
2022/08/30 01:45:26;;;;;;;10.30;7.00;;;;;;;13.67;81.89;98970.09;1639990;86;25618;-57
2022/08/30 01:47:52;;;;;;;11.03;7.28;;;;;;;13.68;81.24;98973.89;1639971;87;25678;-57
2022/08/30 01:50:18;;;;;;;12.07;7.28;;;;;;;13.66;81.69;98973.98;1639884;86;25775;-57
2022/08/30 01:52:44;;;;;;;10.20;6.12;;;;;;;13.68;81.76;98967.02;1640463;87;25670;-57
2022/08/30 01:55:11;;;;;;;10.75;5.80;;;;;;;13.70;81.29;98969.44;1640013;87;27400;-57
2022/08/30 01:57:37;;;;;;;10.93;5.87;;;;;;;13.64;81.48;98965.23;1639857;87;27110;-57
2022/08/30 02:00:08;;;;;;;11.45;6.60;;;;;;;13.52;81.39;98970.03;1639933;87;25555;-58
2022/08/30 02:02:34;;;;;;;17.55;7.45;;;;;;;13.41;81.94;98970.34;1640451;87;25700;-57
2022/08/30 02:05:00;;;;;;;10.90;6.55;;;;;;;13.42;81.96;98974.70;1640238;86;25448;-57
2022/08/30 02:07:26;;;;;;;8.05;5.55;;;;;;;13.45;81.72;98977.95;1640386;86;27389;-57
2022/08/30 02:09:53;;;;;;;12.47;6.17;;;;;;;13.37;81.38;98978.20;1640096;86;25760;-57
2022/08/30 02:12:20;;;;;;;10.60;6.40;;;;;;;13.27;81.73;98965.59;1640249;86;25499;-57
2022/08/30 02:14:46;;;;;;;10.00;5.97;;;;;;;13.33;81.99;98963.48;1640169;86;25740;-57
2022/08/30 02:17:14;;;;;;;14.13;5.90;;;;;;;13.37;81.59;98963.88;1640112;86;25611;-57
2022/08/30 02:19:42;;;;;;;8.75;5.90;;;;;;;13.38;81.55;98961.36;1640143;87;28232;-57
2022/08/30 02:22:08;;;;;;;15.10;5.08;;;;;;;13.38;81.50;98958.61;1639868;87;25663;-57
2022/08/30 02:24:35;;;;;;;8.73;6.10;;;;;;;13.36;81.62;98956.73;1640103;86;25630;-57
2022/08/30 02:27:02;;;;;;;12.47;5.83;;;;;;;13.41;81.81;98953.83;1640112;86;25807;-57
2022/08/30 02:29:29;;;;;;;13.00;6.40;;;;;;;13.43;81.89;98959.02;1640224;86;25480;-64
2022/08/30 02:31:56;;;;;;;9.83;6.00;;;;;;;13.47;81.92;98963.31;1640086;86;27399;-64
2022/08/30 02:34:23;;;;;;;7.87;5.83;;;;;;;13.52;82.01;98968.66;1640108;86;25639;-64
2022/08/30 02:36:49;;;;;;;9.45;6.03;;;;;;;13.58;82.09;98962.44;1639983;86;25653;-64
2022/08/30 02:39:16;;;;;;;8.18;5.75;;;;;;;13.60;82.11;98964.28;1639883;86;27883;-65
2022/08/30 02:41:43;;;;;;;11.48;5.95;;;;;;;13.62;81.82;98964.77;1640348;86;25519;-64
2022/08/30 02:44:10;;;;;;;12.03;6.37;;;;;;;13.60;81.67;98959.59;1640184;87;27659;-64
2022/08/30 02:46:38;;;;;;;8.60;6.08;;;;;;;13.63;81.89;98959.50;1639947;87;25677;-57
2022/08/30 02:49:07;;;;;;;10.75;5.92;;;;;;;13.63;81.89;98956.74;1640237;86;25489;-57
2022/08/30 02:51:33;;;;;;;11.18;6.45;;;;;;;13.62;81.98;98955.92;1639989;86;25497;-57
2022/08/30 02:54:00;;;;;;;11.40;7.25;;;;;;;13.62;81.95;98954.55;1640202;87;25402;-57
2022/08/30 02:56:27;;;;;;;14.28;7.65;;;;;;;13.61;81.86;98952.12;1639953;87;27411;-57
2022/08/30 02:58:54;;;;;;;11.63;7.45;;;;;;;13.60;81.58;98953.27;1640042;87;26020;-58
2022/08/30 03:01:20;;;;;;;13.10;6.87;;;;;;;13.56;81.22;98954.50;1640166;86;25460;-58
2022/08/30 03:03:49;;;;;;;14.28;7.55;;;;;;;13.49;81.55;98954.95;1640271;86;25829;-58
2022/08/30 03:06:16;;;;;;;12.45;6.85;;;;;;;13.51;82.06;98952.73;1640200;86;25645;-58
2022/08/30 03:08:42;;;;;;;11.53;6.58;;;;;;;13.56;82.12;98951.75;1639857;86;27467;-58
2022/08/30 03:11:09;;;;;;;17.50;7.47;;;;;;;13.58;81.31;98953.59;1640398;86;25463;-59
2022/08/30 03:13:36;;;;;;;13.78;6.90;;;;;;;13.55;81.54;98950.11;1640642;87;25607;-58
2022/08/30 03:16:02;;;;;;;12.73;7.10;;;;;;;13.59;81.28;98949.72;1640007;86;25749;-57
2022/08/30 03:18:29;;;;;;;11.25;6.47;;;;;;;13.55;81.32;98953.69;1640056;86;25639;-58
2022/08/30 03:20:55;;;;;;;10.50;6.17;;;;;;;13.54;81.19;98949.33;1639916;87;27626;-58
2022/08/30 03:23:22;;;;;;;10.10;5.80;;;;;;;13.43;81.01;98961.77;1640170;86;25663;-58
2022/08/30 03:25:49;;;;;;;9.68;5.75;;;;;;;13.23;81.36;98951.66;1639967;86;25566;-58
2022/08/30 03:28:15;;;;;;;8.20;5.30;;;;;;;13.17;81.94;98961.20;1639908;86;26632;-58
2022/08/30 03:30:41;;;;;;;10.72;5.62;;;;;;;13.18;82.20;98963.64;1640307;86;25698;-58
2022/08/30 03:33:07;;;;;;;6.47;4.95;;;;;;;13.22;82.13;98965.19;1639932;86;27663;-58
2022/08/30 03:35:33;;;;;;;9.03;4.92;;;;;;;13.22;81.74;98967.94;1640052;87;25591;-57
2022/08/30 03:38:00;;;;;;;12.58;5.62;;;;;;;13.21;81.84;98958.63;1639931;86;25693;-58
2022/08/30 03:40:26;;;;;;;9.18;5.87;;;;;;;13.18;81.59;98962.81;1640165;87;25752;-57
2022/08/30 03:42:53;;;;;;;12.00;6.55;;;;;;;13.09;81.50;98971.08;1640081;86;25603;-57
2022/08/30 03:45:19;;;;;;;10.95;6.75;;;;;;;13.03;81.78;98974.56;1639934;87;27435;-57
2022/08/30 03:47:46;;;;;;;10.93;6.03;;;;;;;13.00;81.94;98973.01;1640048;86;25731;-57
2022/08/30 03:50:14;;;;;;;10.78;6.10;;;;;;;12.93;81.81;98983.92;1640254;87;25482;-57
2022/08/30 03:52:41;;;;;;;11.30;6.30;;;;;;;12.86;81.94;98987.72;1639895;87;25808;-57
2022/08/30 03:55:08;;;;;;;8.65;6.03;;;;;;;12.87;82.47;98984.42;1640630;87;25646;-57
2022/08/30 03:57:39;;;;;;;15.43;6.35;;;;;;;12.91;82.21;98988.14;1639820;86;27491;-57
2022/08/30 04:00:10;;;;;;;8.90;5.83;;;;;;;12.96;82.43;98993.49;1639892;87;25730;-58
2022/08/30 04:02:42;;;;;;;11.33;5.83;;;;;;;13.01;82.07;98993.32;1640268;86;25663;-58
2022/08/30 04:05:12;;;;;;;13.85;6.53;;;;;;;12.99;81.98;98991.48;1640156;87;26626;-58
2022/08/30 04:07:42;;;;;;;9.73;5.72;;;;;;;12.94;82.33;98995.75;1640235;87;25603;-57
2022/08/30 04:10:12;;;;;;;9.05;5.85;;;;;;;12.93;82.56;99000.43;1640268;87;28209;-58
2022/08/30 04:12:44;;;;;;;12.80;7.05;;;;;;;12.93;82.34;98994.92;1640100;86;25478;-58
2022/08/30 04:15:14;;;;;;;14.55;7.45;;;;;;;12.92;82.57;99000.75;1622062;87;25751;-58
2022/08/30 04:17:43;;;;;;;12.05;7.22;;;;;;;12.92;82.58;98994.69;1640351;86;25697;-58
2022/08/30 04:20:15;;;;;;;10.70;6.42;;;;;;;12.98;82.84;98995.92;1640328;87;25702;-58
2022/08/30 04:22:48;;;;;;;11.75;6.22;;;;;;;13.03;82.71;98994.37;1640153;86;28377;-57
2022/08/30 04:25:17;;;;;;;11.68;6.08;;;;;;;13.02;82.88;99000.47;1640021;87;25673;-58
2022/08/30 04:27:45;;;;;;;12.05;6.20;;;;;;;13.09;83.02;99000.52;1640149;87;26785;-58
2022/08/30 04:30:15;;;;;;;10.60;6.50;;;;;;;13.09;83.13;99006.84;1639910;87;26688;-58
2022/08/30 04:32:42;;;;;;;12.13;6.72;;;;;;;13.13;83.24;99007.02;1640297;86;25468;-58
2022/08/30 04:35:10;;;;;;;12.15;6.60;;;;;;;13.13;83.33;99007.02;1640395;87;28794;-59
2022/08/30 04:37:38;;;;;;;10.23;6.15;;;;;;;13.26;83.67;99014.31;1640384;86;25748;-58
2022/08/30 04:40:06;;;;;;;12.33;6.37;;;;;;;13.32;83.34;99009.45;1640438;86;25609;-58
2022/08/30 04:42:34;;;;;;;11.12;6.70;;;;;;;13.32;83.75;99014.16;1640346;87;25759;-58
2022/08/30 04:45:05;;;;;;;16.10;6.80;;;;;;;13.33;83.92;99015.22;1640257;87;25631;-58
2022/08/30 04:47:31;;;;;;;11.85;6.70;;;;;;;13.36;83.98;99015.92;1640277;87;27551;-58
2022/08/30 04:49:58;;;;;;;12.90;7.53;;;;;;;13.52;83.85;99025.10;1640155;87;26081;-58
2022/08/30 04:52:24;;;;;;;10.40;6.72;;;;;;;13.70;83.50;99026.48;1640487;87;25732;-57
2022/08/30 04:54:56;;;;;;;8.83;6.37;;;;;;;13.82;83.53;99025.25;1631424;87;25788;-58
2022/08/30 04:57:23;;;;;;;11.53;6.75;;;;;;;13.93;83.14;99030.65;1611709;88;25714;-58
2022/08/30 04:59:51;;;;;;;12.60;6.70;;;;;;;14.00;83.12;99027.41;1611796;88;28444;-58
2022/08/30 05:02:19;;;;;;;10.13;6.42;;;;;;;14.13;83.04;99035.22;1611107;87;25776;-58
2022/08/30 05:07:32;;;;;;;10.43;6.53;;;;;;;14.29;83.26;99027.80;1609918;89;25796;-58
2022/08/30 05:09:59;;;;;;;12.25;7.42;;;;;;;14.46;83.35;99033.00;1609976;89;25780;-58
2022/08/30 05:12:26;;;;;;;12.18;7.22;;;;;;;14.62;82.71;99025.00;1610569;87;27506;-57
2022/08/30 05:14:52;;;;;;;11.48;7.10;;;;;;;14.82;82.46;99027.58;1611053;87;25635;-59
2022/08/30 05:17:18;;;;;;;14.70;6.17;;;;;;;15.03;82.12;99029.59;1611429;88;25698;-58
2022/08/30 05:19:45;;;;;;;11.83;6.10;;;;;;;15.47;81.21;99023.73;1610913;88;25946;-58
2022/08/30 05:22:11;;;;;;;15.00;6.37;;;;;;;15.47;81.21;99023.73;1610906;89;25684;-57
2022/08/30 05:24:37;;;;;;;13.43;6.87;;;;;;;15.79;80.38;99029.62;1610978;89;27516;-58
2022/08/30 05:27:04;;;;;;;15.23;6.22;;;;;;;15.79;80.38;99029.62;1610744;86;25663;-57
2022/08/30 05:29:43;;;;;;;12.95;6.83;;;;;;;15.87;80.09;99035.40;1632106;86;25707;-58
2022/08/30 05:32:16;;;;;;;13.28;6.15;;;;;;;15.91;80.08;99039.91;1614722;86;26099;-58
2022/08/30 05:34:43;;;;;;;12.13;6.58;;;;;;;16.06;80.02;99039.05;1596955;89;25795;-58
2022/08/30 05:37:10;;;;;;;15.18;7.33;;;;;;;16.06;80.02;99039.05;1595872;89;27583;-57
2022/08/30 05:39:36;;;;;;;15.90;7.20;;;;;;;16.22;79.80;99044.74;1601533;88;25955;-58
2022/08/30 05:42:02;;;;;;;16.23;7.17;;;;;;;16.39;79.55;99046.51;1606463;88;25771;-58
2022/08/30 05:44:32;;;;;;;13.98;7.20;;;;;;;16.52;78.94;99050.67;1615945;88;25675;-60
2022/08/30 05:47:02;;;;;;;17.27;7.15;;;;;;;16.66;78.95;99047.55;1615690;88;25701;-58
2022/08/30 05:49:28;;;;;;;15.28;6.45;;;;;;;16.78;78.29;99054.47;1615510;88;27446;-57
2022/08/30 05:51:54;;;;;;;12.03;6.28;;;;;;;16.80;78.00;99051.36;1615345;88;25811;-58
2022/08/30 05:54:20;;;;;;;11.97;6.62;;;;;;;16.88;78.38;99051.83;1570757;88;25690;-57
2022/08/30 05:56:46;;;;;;;10.70;6.67;;;;;;;17.02;77.56;99051.48;1570775;90;26736;-57
2022/08/30 05:59:13;;;;;;;14.87;6.90;;;;;;;17.07;76.92;99054.59;1570712;90;25635;-57
2022/08/30 06:01:44;;;;;;;12.15;6.42;;;;;;;17.09;76.91;99052.29;1570389;91;27430;-57
2022/08/30 06:04:12;;;;;;;17.35;6.92;;;;;;;17.05;76.27;99058.27;1571321;90;25710;-59
2022/08/30 06:06:41;;;;;;;13.78;6.60;;;;;;;17.09;77.17;99056.44;1570812;90;25717;-58
2022/08/30 06:09:10;;;;;;;11.18;6.70;;;;;;;17.17;76.86;99050.55;1570718;90;25704;-58
2022/08/30 06:11:37;;;;;;;9.95;6.28;;;;;;;17.23;76.79;99049.73;1570799;91;25649;-58
2022/08/30 06:14:05;;;;;;;11.95;7.30;;;;;;;17.37;76.65;99065.97;1570639;90;27552;-57
2022/08/30 06:16:33;;;;;;;12.55;7.60;;;;;;;17.48;76.70;99061.58;1570572;91;25697;-65
2022/08/30 06:19:00;;;;;;;13.03;7.30;;;;;;;17.72;76.27;99063.20;1570832;91;25631;-65
2022/08/30 06:21:34;;;;;;;13.65;7.80;;;;;;;17.89;75.52;99064.31;1570709;91;25815;-65
2022/08/30 06:24:03;;;;;;;12.98;7.28;;;;;;;18.00;74.90;99063.80;1589192;88;25741;-65
2022/08/30 06:26:30;;;;;;;10.00;6.95;;;;;;;17.95;74.79;99059.30;1595980;89;27573;-64
2022/08/30 06:28:57;;;;;;;15.08;8.15;;;;;;;18.11;74.49;99055.80;1596000;88;25740;-65
2022/08/30 06:31:25;;;;;;;12.93;7.45;;;;;;;18.19;73.47;99054.81;1596763;89;25672;-64
2022/08/30 06:33:52;;;;;;;13.22;7.00;;;;;;;18.28;73.86;99051.89;1609146;87;26309;-58
2022/08/30 06:36:22;;;;;;;10.28;7.40;;;;;;;18.43;73.83;99050.28;1649547;86;25649;-58
2022/08/30 06:38:55;;;;;;;12.63;7.42;;;;;;;18.62;73.88;99053.72;1627984;88;27400;-58
2022/08/30 06:41:26;;;;;;;11.12;7.05;;;;;;;18.77;73.12;99054.88;1626082;87;25659;-58
2022/08/30 06:43:53;;;;;;;12.85;7.28;;;;;;;18.84;73.43;99057.60;1649476;86;25617;-58
2022/08/30 06:46:25;;;;;;;13.48;7.70;;;;;;;18.99;73.09;99052.61;1627945;88;25849;-58
2022/08/30 06:48:53;;;;;;;12.90;7.17;;;;;;;19.14;72.72;99068.26;1626914;87;25498;-58
2022/08/30 06:51:26;;;;;;;14.50;7.50;;;;;;;19.23;72.69;99062.50;1626077;87;28151;-57
2022/08/30 06:53:53;;;;;;;10.58;6.60;;;;;;;19.38;71.60;99065.81;1649395;86;25741;-58
2022/08/30 06:56:21;;;;;;;10.08;6.33;;;;;;;19.40;71.06;99062.67;1627698;88;25642;-58
2022/08/30 06:58:49;;;;;;;10.90;6.62;;;;;;;19.40;71.59;99066.23;1625907;87;25743;-57
2022/08/30 07:01:20;;;;;;;10.63;6.65;;;;;;;19.65;71.39;99067.94;1626164;88;25692;-58
2022/08/30 07:03:46;;;;;;;10.88;6.53;;;;;;;19.83;70.36;99066.13;1625953;88;27954;-58
2022/08/30 07:06:13;;;;;;;11.30;6.33;;;;;;;19.84;69.45;99066.33;1635185;87;25442;-58
2022/08/30 07:08:40;;;;;;;9.65;6.08;;;;;;;19.87;70.95;99074.76;1635157;87;25701;-58
2022/08/30 07:11:07;;;;;;;10.53;5.87;;;;;;;20.01;69.49;99077.59;1635077;86;25791;-57
2022/08/30 07:13:36;;;;;;;10.30;6.00;;;;;;;20.01;69.21;99074.24;1634963;87;25492;-58
2022/08/30 07:16:13;;;;;;;13.45;6.03;;;;;;;20.04;68.79;99074.89;1635123;86;27505;-58
2022/08/30 07:18:57;;;;;;;10.88;6.10;;;;;;;20.05;68.14;99070.97;1634656;87;25487;-57
2022/08/30 07:21:28;;;;;;;12.25;6.90;;;;;;;20.15;68.40;99069.55;1634052;87;25744;-58
2022/08/30 07:23:56;;;;;;;10.28;5.85;;;;;;;20.10;68.50;99070.44;1635015;87;25734;-58
2022/08/30 07:26:27;;;;;;;9.58;5.28;;;;;;;20.11;68.71;99071.46;1634975;87;25637;-58
2022/08/30 07:28:54;;;;;;;8.83;5.95;;;;;;;20.33;68.50;99068.27;1634600;87;27422;-58
2022/08/30 07:31:21;;;;;;;7.80;5.72;;;;;;;20.55;68.69;99066.07;1634716;87;25510;-58
2022/08/30 07:33:48;;;;;;;8.05;5.50;;;;;;;20.78;68.69;99067.25;1636189;86;25641;-58
2022/08/30 07:36:16;;;;;;;8.63;5.67;;;;;;;21.11;67.52;99060.79;1640070;87;25909;-57
2022/08/30 07:38:45;;;;;;;9.10;5.97;;;;;;;21.24;66.45;99059.38;1640238;86;25438;-58
2022/08/30 07:41:22;;;;;;;8.23;5.87;;;;;;;21.21;65.81;99068.50;1640048;87;27384;-58
2022/08/30 07:43:49;;;;;;;9.28;5.90;;;;;;;21.32;65.93;99067.25;1655903;86;25487;-57
2022/08/30 07:46:16;;;;;;;8.90;5.80;;;;;;;21.47;66.77;99072.44;1639394;87;25636;-61
2022/08/30 07:48:42;;;;;;;8.73;5.62;;;;;;;21.64;65.16;99063.28;1640196;87;26295;-59
2022/08/30 07:51:15;;;;;;;8.73;5.62;;;;;;;21.79;66.30;99072.68;1639928;86;25517;-58
2022/08/30 07:53:42;;;;;;;9.28;6.17;;;;;;;21.97;64.34;99065.91;1640340;87;27459;-59
2022/08/30 07:56:09;;;;;;;8.23;6.45;;;;;;;22.10;64.31;99070.61;1640045;86;25427;-58
2022/08/30 07:58:36;;;;;;;6.90;5.15;;;;;;;22.23;65.38;99080.12;1639864;86;25691;-58
2022/08/30 08:01:07;;;;;;;7.60;5.87;;;;;;;22.44;62.92;99078.94;1639869;86;25822;-58
2022/08/30 08:03:34;;;;;;;7.83;6.00;;;;;;;22.66;62.95;99087.55;1640477;86;25509;-58
2022/08/30 08:06:04;;;;;;;9.43;5.67;;;;;;;22.88;62.18;99083.52;1640114;87;28314;-57
2022/08/30 08:08:32;;;;;;;7.95;5.17;;;;;;;23.03;61.48;99083.63;1640243;86;25657;-57
2022/08/30 08:11:15;;;;;;;7.30;5.30;;;;;;;23.18;60.83;99083.12;1639903;86;25636;-57
2022/08/30 08:13:43;;;;;;;6.53;4.70;;;;;;;23.46;61.43;99091.52;1640007;86;25751;-57
2022/08/30 08:16:09;;;;;;;5.97;4.60;;;;;;;23.85;59.07;99085.07;1621525;87;25666;-58
2022/08/30 08:18:35;;;;;;;5.72;4.53;;;;;;;23.76;58.25;99084.05;1640303;86;27462;-58
2022/08/30 08:21:02;;;;;;;4.80;3.70;;;;;;;23.65;59.20;99088.19;1639808;87;25681;-57
2022/08/30 08:23:29;;;;;;;6.75;3.92;;;;;;;23.36;58.44;99083.23;1639826;86;25691;-58
2022/08/30 08:25:56;;;;;;;5.72;3.98;;;;;;;23.24;59.22;99084.38;1640187;86;25694;-58
2022/08/30 08:28:35;;;;;;;5.72;3.87;;;;;;;23.45;61.51;99091.30;1640229;86;25455;-58
2022/08/30 08:31:02;;;;;;;5.67;4.00;;;;;;;23.95;60.77;99085.73;1639920;86;27492;-58
2022/08/30 08:33:28;;;;;;;5.80;4.33;;;;;;;24.34;59.25;99092.64;1640137;87;25623;-57
2022/08/30 08:35:56;;;;;;;4.85;3.25;;;;;;;24.97;58.08;99083.09;1639951;86;25619;-58
2022/08/30 08:38:22;;;;;;;3.92;3.00;;;;;;;25.33;54.98;99085.05;1639911;87;25735;-58
2022/08/30 08:41:06;;;;;;;3.02;2.72;;;;;;;25.62;53.45;99081.38;1639911;87;25459;-60
2022/08/30 08:43:36;;;;;;;4.80;3.25;;;;;;;25.47;52.91;99079.97;1640128;87;28267;-58
2022/08/30 08:46:17;;;;;;;4.30;3.30;;;;;;;25.20;53.21;99077.64;1639166;86;25692;-58
2022/08/30 08:48:51;;;;;;;4.67;3.10;;;;;;;25.21;53.54;99083.44;1638738;87;25509;-58
2022/08/30 08:54:14;;;;;;;4.22;2.83;;;;;;;25.99;53.10;99077.80;1639973;87;25660;-58
2022/08/30 08:56:42;;;;;;;5.12;2.85;;;;;;;26.18;51.69;99082.09;1640249;87;27396;-58
2022/08/30 08:59:10;;;;;;;3.62;2.67;;;;;;;26.30;50.60;99075.22;1639825;86;25525;-58
2022/08/30 09:01:38;;;;;;;4.17;2.60;;;;;;;26.66;48.16;99076.98;1640210;87;25672;-57
2022/08/30 09:04:16;;;;;;;3.62;2.42;;;;;;;26.86;48.87;99076.41;1640040;87;25753;-57
2022/08/30 09:07:04;;;;;;;2.87;2.58;;;;;;;26.90;47.79;99077.97;1639837;87;25641;-57
2022/08/30 09:09:35;;;;;;;3.05;2.70;;;;;;;26.86;47.06;99077.81;1640116;86;26896;-57
2022/08/30 09:12:03;;;;;;;5.00;3.25;;;;;;;26.75;47.67;99077.30;1640169;87;25637;-57
2022/08/30 09:14:38;;;;;;;4.30;3.02;;;;;;;26.85;48.82;99073.41;1640109;86;25537;-58
2022/08/30 09:17:08;;;;;;;3.22;2.92;;;;;;;27.32;45.03;99074.38;1640213;86;26409;-58
2022/08/30 09:19:55;;;;;;;4.05;2.50;;;;;;;27.48;47.35;99072.98;1640160;87;25511;-59
2022/08/30 09:22:38;;;;;;;3.60;2.70;;;;;;;27.91;45.64;99079.52;1639985;87;27466;-58
2022/08/30 09:25:24;;;;;;;3.92;2.70;;;;;;;27.93;46.51;99074.27;1640221;86;25676;-57
2022/08/30 09:27:53;;;;;;;4.83;2.65;;;;;;;27.73;47.03;99076.13;1640112;87;25533;-57
2022/08/30 09:30:27;;;;;;;3.75;2.70;;;;;;;27.43;47.83;99076.45;1640414;87;26374;-57
2022/08/30 09:33:00;;;;;;;4.03;2.60;;;;;;;27.15;48.68;99075.56;1640323;86;25526;-58
2022/08/30 09:35:44;;;;;;;6.12;2.75;;;;;;;27.02;48.95;99078.09;1640032;87;27464;-58
2022/08/30 09:38:33;;;;;;;4.92;3.08;;;;;;;26.92;48.04;99076.15;1639994;86;25890;-59
2022/08/30 09:41:21;;;;;;;3.75;2.83;;;;;;;26.84;48.19;99077.41;1640349;87;25667;-57
2022/08/30 09:43:53;;;;;;;3.40;2.47;;;;;;;27.26;47.36;99076.05;1640030;87;25744;-58
2022/08/30 09:46:23;;;;;;;4.00;2.90;;;;;;;28.08;47.42;99070.44;1638849;87;25526;-57
2022/08/30 09:48:49;;;;;;;;;;;;;;;28.72;42.91;99066.46;1642389;86;27510;-58
2022/08/30 09:51:37;;;;;;;2.98;2.50;;;;;;;28.76;42.97;99063.59;1640307;87;25628;-57
2022/08/30 09:54:18;;;;;;;3.52;2.50;;;;;;;28.72;42.76;99059.41;1640086;86;25630;-58
2022/08/30 09:57:23;;;;;;;3.37;2.50;;;;;;;28.84;42.16;99055.17;1634954;87;26650;-58
2022/08/30 10:00:16;;;;;;;3.08;2.50;;;;;;;29.32;42.66;99059.38;1640350;86;25628;-57
2022/08/30 10:03:12;;;;;;;3.35;2.40;;;;;;;29.79;40.81;99053.42;1640187;86;27889;-58
2022/08/30 10:05:59;;;;;;;4.03;2.45;;;;;;;29.79;41.21;99051.38;1639919;86;25517;-57
2022/08/30 10:08:43;;;;;;;3.33;2.70;;;;;;;28.51;41.33;99047.88;1640316;86;25771;-57
2022/08/30 10:11:33;;;;;;;2.60;2.40;;;;;;;28.27;43.20;99049.25;1639407;87;25708;-58
2022/08/30 10:14:08;;;;;;;;;;;;;;;27.51;43.35;99053.24;1642840;86;25691;-58
2022/08/30 10:16:55;;;;;;;3.25;2.45;;;;;;;27.59;43.74;99055.97;1578764;89;28809;-58
2022/08/30 10:19:42;;;;;;;3.87;2.30;;;;;;;27.52;42.94;99049.83;1577873;90;25680;-59
2022/08/30 10:22:36;;;;;;;2.33;2.02;;;;;;;27.97;42.93;99054.49;1578225;90;25830;-58
2022/08/30 10:25:14;;;;;;;2.77;2.10;;;;;;;28.38;42.26;99047.07;1578570;90;25836;-59
2022/08/30 10:27:47;;;;;;;2.27;1.82;;;;;;;28.73;41.66;99048.94;1577078;90;25752;-58
2022/08/30 10:30:15;;;;;;;1.90;1.70;;;;;;;28.88;41.58;99045.25;1578121;90;27460;-59
2022/08/30 10:32:56;;;;;;;2.37;1.40;;;;;;;29.26;41.23;99042.75;1578126;90;25747;-58
2022/08/30 10:35:30;;;;;;;1.17;1.00;;;;;;;29.10;39.08;99044.25;1581508;89;25243;-59
2022/08/30 10:38:11;;;;;;;2.08;1.20;;;;;;;28.95;38.57;99040.13;1584771;90;25748;-58
2022/08/30 10:43:47;;;;;;;1.70;1.60;;;;;;;28.42;39.18;99036.56;1584850;89;25624;-58
2022/08/30 10:46:33;;;;;;;2.50;1.72;;;;;;;28.41;41.13;99037.77;1584401;90;25739;-58
2022/08/30 10:49:04;;;;;;;1.80;1.70;;;;;;;28.30;42.05;99042.16;1584581;90;25729;-57
2022/08/30 10:51:51;;;;;;;2.00;1.72;;;;;;;28.41;43.04;99039.17;1584810;90;25695;-58
2022/08/30 10:54:41;;;;;;;1.70;1.60;;;;;;;28.73;41.55;99032.83;1628655;87;25583;-58
2022/08/30 10:57:08;;;;;;;2.95;1.80;;;;;;;29.28;41.15;99027.61;1647498;86;28298;-57
2022/08/30 10:59:39;;;;;;;2.35;1.85;;;;;;;29.52;39.34;99031.15;1647270;86;25504;-58
2022/08/30 11:02:29;;;;;;;2.10;1.85;;;;;;;29.63;38.63;99028.13;1646836;86;25459;-57
2022/08/30 11:05:28;;;;;;;2.10;1.52;;;;;;;29.59;39.50;99025.20;1601718;89;25799;-58
2022/08/30 11:08:28;;;;;;;2.87;1.40;;;;;;;29.62;39.03;99017.27;1609043;89;25771;-58
2022/08/30 11:11:15;;;;;;;1.60;1.50;;;;;;;29.90;38.34;99020.07;1609130;89;29449;-58
2022/08/30 11:13:43;;;;;;;1.90;1.60;;;;;;;30.00;37.20;99016.03;1609132;89;25484;-58
2022/08/30 11:16:14;;;;;;;2.58;1.70;;;;;;;29.65;37.95;99012.16;1609459;89;25719;-58
2022/08/30 11:18:49;;;;;;;1.85;1.62;;;;;;;29.48;39.69;99019.75;1609427;89;25709;-58
2022/08/30 11:21:35;;;;;;;2.25;1.82;;;;;;;29.74;39.09;99015.80;1609393;89;25745;-58
2022/08/30 11:24:23;;;;;;;2.80;1.72;;;;;;;29.59;38.94;99015.32;1609292;89;27463;-59
2022/08/30 11:26:57;;;;;;;2.33;1.80;;;;;;;29.80;38.69;99014.86;1609571;89;25818;-59
2022/08/30 11:29:41;;;;;;;2.98;1.57;;;;;;;30.24;38.22;99010.24;1609055;89;26994;-58
2022/08/30 11:32:22;;;;;;;1.47;1.37;;;;;;;30.28;37.72;99008.92;1609296;89;25818;-58
2022/08/30 11:34:56;;;;;;;2.02;1.62;;;;;;;30.70;37.53;99008.09;1606382;89;25693;-58
2022/08/30 11:37:41;;;;;;;2.15;1.60;;;;;;;31.10;38.85;99012.72;1591828;90;27967;-58
2022/08/30 11:40:22;;;;;;;1.92;1.52;;;;;;;31.65;36.48;99017.03;1591652;90;25999;-58
2022/08/30 11:42:51;;;;;;;1.87;1.30;;;;;;;31.87;34.82;99012.13;1594664;89;25612;-58
2022/08/30 11:45:34;;;;;;;1.85;1.22;;;;;;;31.63;34.09;99005.99;1598194;89;25677;-58
2022/08/30 11:48:01;;;;;;;1.85;1.20;;;;;;;31.52;33.70;99004.25;1597205;89;25638;-58
2022/08/30 11:50:54;;;;;;;1.20;1.10;;;;;;;31.91;33.20;99006.34;1597514;89;27453;-58
2022/08/30 11:53:26;;;;;;;1.67;1.37;;;;;;;32.07;34.19;99001.84;1597287;89;25681;-58
2022/08/30 11:56:03;;;;;;;2.52;1.40;;;;;;;32.16;33.82;98993.44;1598071;89;25709;-58
2022/08/30 11:58:55;;;;;;;2.45;1.30;;;;;;;32.80;34.52;99001.04;1597886;89;25742;-58